createdAt,value
2018-03-30T00:00:25.531Z,8.00
2018-03-30T00:01:04.517Z,8.00
2018-03-30T00:02:04.509Z,8.00
2018-03-30T00:03:04.501Z,8.00
2018-03-30T00:04:04.493Z,8.00
2018-03-30T00:05:04.487Z,8.00
2018-03-30T00:06:25.477Z,8.00
2018-03-30T00:07:04.471Z,8.00
2018-03-30T00:08:04.459Z,8.00
2018-03-30T00:09:04.452Z,8.00
2018-03-30T00:10:04.445Z,8.00
2018-03-30T00:11:04.436Z,8.00
2018-03-30T00:12:25.433Z,8.00
2018-03-30T00:13:04.418Z,8.00
2018-03-30T00:14:04.413Z,8.00
2018-03-30T00:15:04.404Z,8.00
2018-03-30T00:16:04.421Z,8.00
2018-03-30T00:17:04.391Z,8.00
2018-03-30T00:18:25.390Z,8.00
2018-03-30T00:19:04.374Z,8.00
2018-03-30T00:20:04.376Z,8.00
2018-03-30T00:21:04.360Z,8.00
2018-03-30T00:22:04.350Z,8.00
2018-03-30T00:23:04.341Z,8.00
2018-03-30T00:24:25.337Z,8.00
2018-03-30T00:25:04.334Z,8.00
2018-03-30T00:26:04.314Z,8.00
2018-03-30T00:27:04.314Z,8.00
2018-03-30T00:28:04.299Z,8.00
2018-03-30T00:29:04.292Z,8.00
2018-03-30T00:30:25.295Z,8.00
2018-03-30T00:31:04.284Z,8.00
2018-03-30T00:32:04.268Z,8.00
2018-03-30T00:33:04.365Z,8.00
2018-03-30T00:34:04.254Z,8.00
2018-03-30T00:35:04.245Z,8.00
2018-03-30T00:36:25.242Z,8.00
2018-03-30T00:37:04.231Z,8.00
2018-03-30T00:38:04.234Z,8.00
2018-03-30T00:39:04.222Z,8.00
2018-03-30T00:40:04.208Z,8.00
2018-03-30T00:41:04.196Z,8.00
2018-03-30T00:42:25.197Z,8.00
2018-03-30T00:43:04.186Z,8.00
2018-03-30T00:44:04.178Z,8.00
2018-03-30T00:45:04.168Z,8.00
2018-03-30T00:46:04.161Z,8.00
2018-03-30T00:47:04.156Z,8.00
2018-03-30T00:48:25.157Z,8.00
2018-03-30T00:49:04.138Z,8.00
2018-03-30T00:50:04.407Z,8.00
2018-03-30T00:51:04.119Z,8.00
2018-03-30T00:52:04.115Z,8.00
2018-03-30T00:53:04.103Z,8.00
2018-03-30T00:54:25.103Z,8.00
2018-03-30T00:55:04.086Z,8.00
2018-03-30T00:56:04.080Z,8.00
2018-03-30T00:57:04.072Z,8.00
2018-03-30T00:58:04.083Z,8.00
2018-03-30T00:59:04.057Z,8.00
2018-03-30T01:00:25.051Z,8.00
2018-03-30T01:01:04.052Z,8.00
2018-03-30T01:02:04.033Z,8.00
2018-03-30T01:03:04.024Z,8.00
2018-03-30T01:04:04.015Z,8.00
2018-03-30T01:05:04.005Z,8.00
2018-03-30T01:06:25.006Z,8.00
2018-03-30T01:07:03.997Z,8.00
2018-03-30T01:08:03.986Z,8.00
2018-03-30T01:09:03.972Z,8.00
2018-03-30T01:10:03.971Z,8.00
2018-03-30T01:11:03.992Z,8.00
2018-03-30T01:12:24.960Z,8.00
2018-03-30T01:13:03.941Z,8.00
2018-03-30T01:14:03.938Z,8.00
2018-03-30T01:15:03.929Z,8.00
2018-03-30T01:16:03.917Z,8.00
2018-03-30T01:17:03.911Z,8.00
2018-03-30T01:18:24.905Z,8.00
2018-03-30T01:19:03.893Z,8.00
2018-03-30T01:20:03.889Z,8.00
2018-03-30T01:21:03.875Z,8.00
2018-03-30T01:22:03.863Z,8.00
2018-03-30T01:23:03.861Z,8.00
2018-03-30T01:24:24.865Z,8.00
2018-03-30T01:25:03.849Z,8.00
2018-03-30T01:26:03.840Z,8.00
2018-03-30T01:27:03.843Z,8.00
2018-03-30T01:28:03.824Z,8.00
2018-03-30T01:29:03.816Z,8.00
2018-03-30T01:30:24.808Z,8.00
2018-03-30T01:31:03.842Z,8.00
2018-03-30T01:32:03.785Z,8.00
2018-03-30T01:33:03.780Z,8.00
2018-03-30T01:34:03.770Z,8.00
2018-03-30T01:35:03.762Z,8.00
2018-03-30T01:36:24.760Z,8.00
2018-03-30T01:37:03.747Z,8.00
2018-03-30T01:38:03.738Z,8.00
2018-03-30T01:39:03.732Z,8.00
2018-03-30T01:40:03.718Z,8.00
2018-03-30T01:41:03.716Z,8.00
2018-03-30T01:42:24.707Z,8.00
2018-03-30T01:43:03.698Z,8.00
2018-03-30T01:44:03.690Z,8.00
2018-03-30T01:45:03.678Z,8.00
2018-03-30T01:46:03.676Z,8.00
2018-03-30T01:47:03.659Z,8.00
2018-03-30T01:48:24.659Z,8.00
2018-03-30T01:49:03.646Z,8.00
2018-03-30T01:50:03.643Z,8.00
2018-03-30T01:51:03.629Z,8.00
2018-03-30T01:52:03.626Z,8.00
2018-03-30T01:53:03.611Z,8.00
2018-03-30T01:54:24.614Z,8.00
2018-03-30T01:55:03.602Z,8.00
2018-03-30T01:56:03.594Z,8.00
2018-03-30T01:57:03.585Z,8.00
2018-03-30T01:58:03.567Z,8.00
2018-03-30T01:59:03.596Z,8.00
2018-03-30T02:00:24.560Z,8.00
2018-03-30T02:01:03.546Z,8.00
2018-03-30T02:02:03.538Z,8.00
2018-03-30T02:03:03.531Z,8.00
2018-03-30T02:04:03.520Z,8.00
2018-03-30T02:05:03.518Z,8.00
2018-03-30T02:06:24.513Z,8.00
2018-03-30T02:07:03.499Z,8.00
2018-03-30T02:08:03.488Z,8.00
2018-03-30T02:09:03.483Z,8.00
2018-03-30T02:10:03.478Z,8.00
2018-03-30T02:11:03.465Z,8.00
2018-03-30T02:12:24.464Z,8.00
2018-03-30T02:13:03.457Z,8.00
2018-03-30T02:14:03.439Z,8.00
2018-03-30T02:15:03.430Z,8.00
2018-03-30T02:16:03.423Z,8.00
2018-03-30T02:17:03.418Z,8.00
2018-03-30T02:18:24.431Z,8.00
2018-03-30T02:19:03.396Z,8.00
2018-03-30T02:20:03.387Z,8.00
2018-03-30T02:21:03.380Z,8.00
2018-03-30T02:22:03.383Z,8.00
2018-03-30T02:23:03.372Z,8.00
2018-03-30T02:24:24.365Z,8.00
2018-03-30T02:25:03.349Z,8.00
2018-03-30T02:26:03.345Z,8.00
2018-03-30T02:27:03.332Z,8.00
2018-03-30T02:28:03.325Z,8.00
2018-03-30T02:29:03.314Z,8.00
2018-03-30T02:30:24.330Z,8.00
2018-03-30T02:31:03.298Z,8.00
2018-03-30T02:32:03.298Z,8.00
2018-03-30T02:33:03.276Z,8.00
2018-03-30T02:34:03.285Z,8.00
2018-03-30T02:35:03.266Z,8.00
2018-03-30T02:36:24.262Z,8.00
2018-03-30T02:37:03.248Z,8.00
2018-03-30T02:38:03.239Z,8.00
2018-03-30T02:39:03.235Z,8.00
2018-03-30T02:40:03.223Z,8.00
2018-03-30T02:41:03.218Z,8.00
2018-03-30T02:42:24.212Z,8.00
2018-03-30T02:43:03.200Z,8.00
2018-03-30T02:44:03.189Z,8.00
2018-03-30T02:45:03.200Z,8.00
2018-03-30T02:46:03.178Z,8.00
2018-03-30T02:47:03.164Z,8.00
2018-03-30T02:48:24.163Z,8.00
2018-03-30T02:49:03.156Z,8.00
2018-03-30T02:50:03.140Z,8.00
2018-03-30T02:51:03.129Z,8.00
2018-03-30T02:52:03.124Z,8.00
2018-03-30T02:53:03.116Z,8.00
2018-03-30T02:54:24.117Z,8.00
2018-03-30T02:55:03.102Z,8.00
2018-03-30T02:56:03.094Z,8.00
2018-03-30T02:57:03.082Z,8.00
2018-03-30T02:58:03.075Z,8.00
2018-03-30T02:59:03.067Z,8.00
2018-03-30T03:00:24.060Z,8.00
2018-03-30T03:01:03.048Z,8.00
2018-03-30T03:02:03.038Z,8.00
2018-03-30T03:03:03.033Z,8.00
2018-03-30T03:04:03.035Z,8.00
2018-03-30T03:05:03.014Z,8.00
2018-03-30T03:06:24.013Z,8.00
2018-03-30T03:07:03.003Z,8.00
2018-03-30T03:08:02.993Z,8.00
2018-03-30T03:09:02.985Z,8.00
2018-03-30T03:10:02.978Z,8.00
2018-03-30T03:11:02.968Z,8.00
2018-03-30T03:12:23.961Z,8.00
2018-03-30T03:13:02.950Z,8.00
2018-03-30T03:14:02.937Z,8.00
2018-03-30T03:15:02.937Z,8.00
2018-03-30T03:16:02.921Z,8.00
2018-03-30T03:17:02.927Z,8.00
2018-03-30T03:18:38.831Z,8.00
2018-03-30T03:19:02.907Z,8.00
2018-03-30T03:20:02.897Z,8.00
2018-03-30T03:21:02.875Z,8.00
2018-03-30T03:22:02.868Z,8.00
2018-03-30T03:23:02.858Z,8.00
2018-03-30T03:24:23.857Z,8.00
2018-03-30T03:25:02.841Z,8.00
2018-03-30T03:26:02.841Z,8.00
2018-03-30T03:27:02.827Z,8.00
2018-03-30T03:28:02.820Z,8.00
2018-03-30T03:29:02.809Z,8.00
2018-03-30T03:30:23.812Z,8.00
2018-03-30T03:31:02.790Z,8.00
2018-03-30T03:32:02.787Z,8.00
2018-03-30T03:33:02.774Z,8.00
2018-03-30T03:34:02.765Z,8.00
2018-03-30T03:35:02.754Z,8.00
2018-03-30T03:36:23.752Z,8.00
2018-03-30T03:37:02.739Z,8.00
2018-03-30T03:38:02.730Z,8.00
2018-03-30T03:39:02.726Z,8.00
2018-03-30T03:40:02.708Z,8.00
2018-03-30T03:41:02.703Z,8.00
2018-03-30T03:42:23.707Z,8.00
2018-03-30T03:43:02.685Z,8.00
2018-03-30T03:44:02.680Z,8.00
2018-03-30T03:45:02.670Z,8.00
2018-03-30T03:46:02.661Z,8.00
2018-03-30T03:47:02.653Z,8.00
2018-03-30T03:48:23.652Z,8.00
2018-03-30T03:49:02.636Z,8.00
2018-03-30T03:50:02.629Z,8.00
2018-03-30T03:51:02.617Z,8.00
2018-03-30T03:52:02.612Z,8.00
2018-03-30T03:53:02.595Z,8.00
2018-03-30T03:54:23.593Z,8.00
2018-03-30T03:55:02.580Z,8.00
2018-03-30T03:56:02.573Z,8.00
2018-03-30T03:57:02.559Z,8.00
2018-03-30T03:58:02.547Z,8.00
2018-03-30T03:59:02.546Z,8.00
2018-03-30T04:00:23.538Z,8.00
2018-03-30T04:01:02.527Z,8.00
2018-03-30T04:02:02.519Z,8.00
2018-03-30T04:03:02.504Z,8.00
2018-03-30T04:04:02.501Z,8.00
2018-03-30T04:05:02.487Z,8.00
2018-03-30T04:06:23.483Z,8.00
2018-03-30T04:07:02.468Z,8.00
2018-03-30T04:08:02.459Z,8.00
2018-03-30T04:09:02.450Z,8.00
2018-03-30T04:10:02.440Z,8.00
2018-03-30T04:11:02.437Z,8.00
2018-03-30T04:12:23.428Z,8.00
2018-03-30T04:13:02.409Z,8.00
2018-03-30T04:14:02.411Z,8.00
2018-03-30T04:15:02.406Z,8.00
2018-03-30T04:16:02.384Z,8.00
2018-03-30T04:17:02.371Z,8.00
2018-03-30T04:18:23.367Z,8.00
2018-03-30T04:19:02.373Z,8.00
2018-03-30T04:20:02.344Z,8.00
2018-03-30T04:21:02.337Z,8.00
2018-03-30T04:22:02.332Z,8.00
2018-03-30T04:23:02.317Z,8.00
2018-03-30T04:24:23.314Z,8.00
2018-03-30T04:25:02.300Z,8.00
2018-03-30T04:26:02.287Z,8.00
2018-03-30T04:27:02.280Z,4.00
2018-03-30T04:28:02.334Z,4.00
2018-03-30T04:29:02.262Z,8.00
2018-03-30T04:30:23.262Z,8.00
2018-03-30T04:31:02.245Z,8.00
2018-03-30T04:32:02.239Z,8.00
2018-03-30T04:33:02.220Z,8.00
2018-03-30T04:34:02.218Z,8.00
2018-03-30T04:35:02.204Z,8.00
2018-03-30T04:36:23.200Z,8.00
2018-03-30T04:37:02.184Z,4.00
2018-03-30T04:38:02.176Z,8.00
2018-03-30T04:39:02.163Z,8.00
2018-03-30T04:40:02.158Z,8.00
2018-03-30T04:41:02.148Z,8.00
2018-03-30T04:42:23.152Z,8.00
2018-03-30T04:43:02.135Z,12.00
2018-03-30T04:44:02.149Z,12.00
2018-03-30T04:45:02.118Z,16.00
2018-03-30T04:46:02.100Z,20.00
2018-03-30T04:47:02.095Z,20.00
2018-03-30T04:48:23.086Z,20.00
2018-03-30T04:49:02.068Z,20.00
2018-03-30T04:50:02.074Z,28.00
2018-03-30T04:51:02.051Z,28.00
2018-03-30T04:52:02.048Z,28.00
2018-03-30T04:53:02.046Z,32.00
2018-03-30T04:54:23.031Z,36.00
2018-03-30T04:55:02.016Z,40.00
2018-03-30T04:56:02.014Z,44.00
2018-03-30T04:57:02.004Z,44.00
2018-03-30T04:58:01.988Z,48.00
2018-03-30T04:59:02.012Z,52.00
2018-03-30T05:00:22.976Z,56.00
2018-03-30T05:01:01.976Z,60.00
2018-03-30T05:02:01.952Z,64.00
2018-03-30T05:03:01.939Z,68.00
2018-03-30T05:04:01.946Z,76.00
2018-03-30T05:05:01.927Z,80.00
2018-03-30T05:06:22.929Z,88.00
2018-03-30T05:07:01.907Z,96.00
2018-03-30T05:08:01.890Z,104.00
2018-03-30T05:09:01.885Z,116.00
2018-03-30T05:10:01.877Z,124.00
2018-03-30T05:11:01.872Z,128.00
2018-03-30T05:12:22.861Z,136.00
2018-03-30T05:13:01.851Z,144.00
2018-03-30T05:14:01.842Z,156.00
2018-03-30T05:15:01.829Z,160.00
2018-03-30T05:16:01.824Z,168.00
2018-03-30T05:17:01.818Z,176.00
2018-03-30T05:18:22.814Z,184.00
2018-03-30T05:19:01.794Z,196.00
2018-03-30T05:20:01.786Z,204.00
2018-03-30T05:21:01.769Z,212.00
2018-03-30T05:22:01.821Z,228.00
2018-03-30T05:23:01.759Z,244.00
2018-03-30T05:24:22.750Z,256.00
2018-03-30T05:25:01.735Z,272.00
2018-03-30T05:26:01.730Z,292.00
2018-03-30T05:27:01.719Z,316.00
2018-03-30T05:28:01.707Z,336.00
2018-03-30T05:29:01.702Z,356.00
2018-03-30T05:30:22.702Z,368.00
2018-03-30T05:31:01.681Z,384.00
2018-03-30T05:32:01.676Z,400.00
2018-03-30T05:33:01.656Z,412.00
2018-03-30T05:34:01.650Z,428.00
2018-03-30T05:35:01.643Z,444.00
2018-03-30T05:36:22.645Z,456.00
2018-03-30T05:37:01.642Z,468.00
2018-03-30T05:38:01.615Z,488.00
2018-03-30T05:39:01.610Z,500.00
2018-03-30T05:40:01.602Z,516.00
2018-03-30T05:41:01.589Z,528.00
2018-03-30T05:42:22.586Z,544.00
2018-03-30T05:43:01.573Z,568.00
2018-03-30T05:44:01.570Z,580.00
2018-03-30T05:45:01.554Z,600.00
2018-03-30T05:46:01.542Z,656.00
2018-03-30T05:47:01.533Z,676.00
2018-03-30T05:48:22.528Z,680.00
2018-03-30T05:49:01.508Z,716.00
2018-03-30T05:50:01.510Z,740.00
2018-03-30T05:51:01.542Z,764.00
2018-03-30T05:52:01.490Z,792.00
2018-03-30T05:53:01.491Z,772.00
2018-03-30T05:54:22.475Z,768.00
2018-03-30T05:55:01.458Z,760.00
2018-03-30T05:56:01.449Z,776.00
2018-03-30T05:57:01.467Z,776.00
2018-03-30T05:58:01.431Z,768.00
2018-03-30T05:59:01.419Z,780.00
2018-03-30T06:00:22.420Z,800.00
2018-03-30T06:01:01.403Z,832.00
2018-03-30T06:02:01.394Z,848.00
2018-03-30T06:03:01.389Z,864.00
2018-03-30T06:04:01.374Z,864.00
2018-03-30T06:05:01.364Z,868.00
2018-03-30T06:06:22.362Z,884.00
2018-03-30T06:07:01.347Z,920.00
2018-03-30T06:08:01.337Z,960.00
2018-03-30T06:09:01.334Z,1000.00
2018-03-30T06:10:01.318Z,1016.00
2018-03-30T06:11:01.320Z,1012.00
2018-03-30T06:12:22.307Z,1036.00
2018-03-30T06:13:01.291Z,1044.00
2018-03-30T06:14:01.284Z,1056.00
2018-03-30T06:15:01.277Z,1052.00
2018-03-30T06:16:01.265Z,1052.00
2018-03-30T06:17:01.256Z,1048.00
2018-03-30T06:18:22.253Z,1052.00
2018-03-30T06:19:01.267Z,1052.00
2018-03-30T06:20:01.235Z,1052.00
2018-03-30T06:21:01.337Z,1052.00
2018-03-30T06:22:01.210Z,1088.00
2018-03-30T06:23:01.203Z,1108.00
2018-03-30T06:24:22.223Z,1120.00
2018-03-30T06:25:01.200Z,1096.00
2018-03-30T06:26:01.180Z,1108.00
2018-03-30T06:27:01.169Z,1104.00
2018-03-30T06:28:01.167Z,1108.00
2018-03-30T06:29:01.183Z,1132.00
2018-03-30T06:30:22.149Z,1136.00
2018-03-30T06:31:01.140Z,1116.00
2018-03-30T06:32:01.123Z,1104.00
2018-03-30T06:33:01.115Z,1120.00
2018-03-30T06:34:01.118Z,1152.00
2018-03-30T06:35:01.104Z,1188.00
2018-03-30T06:36:22.095Z,1208.00
2018-03-30T06:37:01.090Z,1204.00
2018-03-30T06:38:01.077Z,1212.00
2018-03-30T06:39:01.069Z,1232.00
2018-03-30T06:40:01.057Z,1220.00
2018-03-30T06:41:01.048Z,1248.00
2018-03-30T06:42:22.044Z,1244.00
2018-03-30T06:43:01.044Z,1232.00
2018-03-30T06:44:01.032Z,1236.00
2018-03-30T06:45:01.015Z,1244.00
2018-03-30T06:46:01.005Z,1276.00
2018-03-30T06:47:01.004Z,1276.00
2018-03-30T06:48:22.036Z,1260.00
2018-03-30T06:49:00.978Z,1248.00
2018-03-30T06:50:00.976Z,1244.00
2018-03-30T06:51:00.978Z,1224.00
2018-03-30T06:52:00.959Z,1252.00
2018-03-30T06:53:00.949Z,1264.00
2018-03-30T06:54:21.945Z,1264.00
2018-03-30T06:55:00.938Z,1268.00
2018-03-30T06:56:00.924Z,1264.00
2018-03-30T06:57:00.908Z,1260.00
2018-03-30T06:58:00.910Z,1268.00
2018-03-30T06:59:00.894Z,1268.00
2018-03-30T07:00:21.890Z,1280.00
2018-03-30T07:01:00.879Z,1296.00
2018-03-30T07:02:00.874Z,1316.00
2018-03-30T07:03:00.865Z,1352.00
2018-03-30T07:04:00.856Z,1396.00
2018-03-30T07:05:00.848Z,1436.00
2018-03-30T07:06:21.844Z,1436.00
2018-03-30T07:07:00.828Z,1448.00
2018-03-30T07:08:00.821Z,1436.00
2018-03-30T07:09:00.816Z,1484.00
2018-03-30T07:10:00.801Z,1524.00
2018-03-30T07:11:00.799Z,1564.00
2018-03-30T07:12:21.793Z,1596.00
2018-03-30T07:13:00.802Z,1624.00
2018-03-30T07:14:00.774Z,1652.00
2018-03-30T07:15:00.766Z,1688.00
2018-03-30T07:16:00.763Z,1712.00
2018-03-30T07:17:00.748Z,1728.00
2018-03-30T07:18:21.825Z,1744.00
2018-03-30T07:19:00.746Z,1736.00
2018-03-30T07:20:00.730Z,1736.00
2018-03-30T07:21:00.725Z,1728.00
2018-03-30T07:22:00.713Z,1724.00
2018-03-30T07:23:00.710Z,1724.00
2018-03-30T07:24:21.699Z,1740.00
2018-03-30T07:25:00.685Z,1772.00
2018-03-30T07:26:00.678Z,1788.00
2018-03-30T07:27:00.666Z,1792.00
2018-03-30T07:28:00.667Z,1788.00
2018-03-30T07:29:00.655Z,1768.00
2018-03-30T07:30:21.650Z,1716.00
2018-03-30T07:31:00.638Z,1700.00
2018-03-30T07:32:00.647Z,1688.00
2018-03-30T07:33:00.623Z,1676.00
2018-03-30T07:34:00.615Z,1676.00
2018-03-30T07:35:00.608Z,1664.00
2018-03-30T07:36:21.606Z,1668.00
2018-03-30T07:37:00.626Z,1680.00
2018-03-30T07:38:00.586Z,1696.00
2018-03-30T07:39:00.582Z,1728.00
2018-03-30T07:40:00.570Z,1752.00
2018-03-30T07:41:00.565Z,1772.00
2018-03-30T07:42:21.568Z,1800.00
2018-03-30T07:43:00.545Z,1824.00
2018-03-30T07:44:00.534Z,1844.00
2018-03-30T07:45:00.531Z,1844.00
2018-03-30T07:46:00.523Z,1868.00
2018-03-30T07:47:00.518Z,1896.00
2018-03-30T07:48:21.636Z,1912.00
2018-03-30T07:49:00.500Z,1932.00
2018-03-30T07:50:00.585Z,1952.00
2018-03-30T07:51:00.486Z,1964.00
2018-03-30T07:52:00.476Z,1972.00
2018-03-30T07:53:00.470Z,2012.00
2018-03-30T07:54:21.469Z,2072.00
2018-03-30T07:55:00.452Z,2092.00
2018-03-30T07:56:00.443Z,2136.00
2018-03-30T07:57:00.447Z,2176.00
2018-03-30T07:58:00.431Z,2252.00
2018-03-30T07:59:00.418Z,2332.00
2018-03-30T08:00:21.418Z,2432.00
2018-03-30T08:01:00.405Z,2504.00
2018-03-30T08:02:00.408Z,2568.00
2018-03-30T08:03:00.412Z,2620.00
2018-03-30T08:04:00.381Z,2592.00
2018-03-30T08:05:00.372Z,2540.00
2018-03-30T08:06:21.390Z,2448.00
2018-03-30T08:07:00.359Z,2328.00
2018-03-30T08:08:00.375Z,2172.00
2018-03-30T08:09:00.344Z,2116.00
2018-03-30T08:10:00.338Z,2112.00
2018-03-30T08:11:00.328Z,2228.00
2018-03-30T08:12:21.328Z,2332.00
2018-03-30T08:13:00.312Z,2344.00
2018-03-30T08:14:00.307Z,2380.00
2018-03-30T08:15:00.301Z,2408.00
2018-03-30T08:16:00.299Z,2452.00
2018-03-30T08:17:00.314Z,2336.00
2018-03-30T08:18:21.315Z,2300.00
2018-03-30T08:19:00.282Z,2156.00
2018-03-30T08:20:00.279Z,2112.00
2018-03-30T08:21:00.310Z,2108.00
2018-03-30T08:22:00.250Z,2104.00
2018-03-30T08:23:00.245Z,2244.00
2018-03-30T08:24:21.246Z,2364.00
2018-03-30T08:25:00.230Z,2356.00
2018-03-30T08:26:00.236Z,2372.00
2018-03-30T08:27:00.229Z,2532.00
2018-03-30T08:28:00.213Z,2600.00
2018-03-30T08:29:00.246Z,2576.00
2018-03-30T08:30:21.208Z,2600.00
2018-03-30T08:31:00.199Z,2668.00
2018-03-30T08:32:00.189Z,2652.00
2018-03-30T08:33:00.182Z,2608.00
2018-03-30T08:34:00.177Z,2556.00
2018-03-30T08:35:00.175Z,2524.00
2018-03-30T08:36:21.167Z,2324.00
2018-03-30T08:37:00.152Z,2168.00
2018-03-30T08:38:00.152Z,2124.00
2018-03-30T08:39:00.188Z,2028.00
2018-03-30T08:40:00.142Z,1872.00
2018-03-30T08:41:00.134Z,2024.00
2018-03-30T08:42:21.140Z,2108.00
2018-03-30T08:43:00.117Z,2140.00
2018-03-30T08:44:00.128Z,2088.00
2018-03-30T08:45:00.139Z,2160.00
2018-03-30T08:46:00.117Z,2204.00
2018-03-30T08:47:00.099Z,2108.00
2018-03-30T08:48:21.114Z,2224.00
2018-03-30T08:49:00.088Z,2732.00
2018-03-30T08:50:00.093Z,2732.00
2018-03-30T08:51:00.074Z,2872.00
2018-03-30T08:52:00.067Z,2776.00
2018-03-30T08:53:00.100Z,2576.00
2018-03-30T08:54:21.068Z,2448.00
2018-03-30T08:55:00.054Z,2384.00
2018-03-30T08:56:00.045Z,2608.00
2018-03-30T08:57:00.058Z,3016.00
2018-03-30T08:58:00.069Z,3060.00
2018-03-30T08:59:00.039Z,2944.00
2018-03-30T09:00:21.035Z,2680.00
2018-03-30T09:01:00.027Z,2368.00
2018-03-30T09:02:00.024Z,2296.00
2018-03-30T09:03:00.014Z,2248.00
2018-03-30T09:04:00.014Z,2208.00
2018-03-30T09:05:00.003Z,2240.00
2018-03-30T09:06:21.003Z,2344.00
2018-03-30T09:06:59.995Z,2308.00
2018-03-30T09:08:00.073Z,2432.00
2018-03-30T09:08:59.976Z,2832.00
2018-03-30T09:09:59.976Z,2920.00
2018-03-30T09:10:59.970Z,2932.00
2018-03-30T09:12:20.969Z,3024.00
2018-03-30T09:12:59.961Z,3056.00
2018-03-30T09:13:59.980Z,2972.00
2018-03-30T09:14:59.959Z,2856.00
2018-03-30T09:15:59.942Z,2536.00
2018-03-30T09:16:59.940Z,2488.00
2018-03-30T09:18:21.015Z,2368.00
2018-03-30T09:18:59.940Z,2312.00
2018-03-30T09:19:59.922Z,2116.00
2018-03-30T09:20:59.930Z,2376.00
2018-03-30T09:21:59.928Z,2460.00
2018-03-30T09:22:59.910Z,2388.00
2018-03-30T09:24:20.922Z,2568.00
2018-03-30T09:24:59.903Z,2776.00
2018-03-30T09:25:59.896Z,2352.00
2018-03-30T09:26:59.895Z,2312.00
2018-03-30T09:27:59.894Z,1992.00
2018-03-30T09:28:59.888Z,2028.00
2018-03-30T09:30:20.888Z,1820.00
2018-03-30T09:30:59.876Z,2032.00
2018-03-30T09:31:59.867Z,1908.00
2018-03-30T09:32:59.867Z,1764.00
2018-03-30T09:33:59.876Z,1924.00
2018-03-30T09:34:59.858Z,2164.00
2018-03-30T09:36:20.874Z,2516.00
2018-03-30T09:36:59.847Z,3120.00
2018-03-30T09:37:59.950Z,3372.00
2018-03-30T09:38:59.845Z,3236.00
2018-03-30T09:39:59.838Z,3276.00
2018-03-30T09:40:59.834Z,3088.00
2018-03-30T09:42:20.840Z,2800.00
2018-03-30T09:42:59.829Z,2632.00
2018-03-30T09:43:59.825Z,3068.00
2018-03-30T09:44:59.828Z,2812.00
2018-03-30T09:45:59.831Z,2736.00
2018-03-30T09:46:59.819Z,2480.00
2018-03-30T09:48:20.913Z,2392.00
2018-03-30T09:48:59.819Z,2436.00
2018-03-30T09:49:59.856Z,2588.00
2018-03-30T09:50:59.802Z,2456.00
2018-03-30T09:51:59.794Z,2328.00
2018-03-30T09:52:59.796Z,2196.00
2018-03-30T09:54:20.796Z,2036.00
2018-03-30T09:54:59.791Z,1904.00
2018-03-30T09:55:59.794Z,1892.00
2018-03-30T09:56:59.782Z,1844.00
2018-03-30T09:57:59.779Z,1852.00
2018-03-30T09:58:59.773Z,1824.00
2018-03-30T10:00:20.784Z,1860.00
2018-03-30T10:00:59.783Z,1876.00
2018-03-30T10:01:59.764Z,1864.00
2018-03-30T10:02:59.763Z,1852.00
2018-03-30T10:03:59.754Z,1828.00
2018-03-30T10:04:59.753Z,1840.00
2018-03-30T10:06:20.756Z,1936.00
2018-03-30T10:06:59.753Z,1928.00
2018-03-30T10:07:59.843Z,1880.00
2018-03-30T10:08:59.763Z,1872.00
2018-03-30T10:09:59.742Z,1864.00
2018-03-30T10:10:59.750Z,1856.00
2018-03-30T10:12:20.745Z,1824.00
2018-03-30T10:12:59.729Z,1832.00
2018-03-30T10:13:59.774Z,1808.00
2018-03-30T10:15:00.142Z,1788.00
2018-03-30T10:15:59.794Z,1804.00
2018-03-30T10:16:59.720Z,1884.00
2018-03-30T10:18:20.805Z,1900.00
2018-03-30T10:18:59.712Z,1956.00
2018-03-30T10:19:59.709Z,1920.00
2018-03-30T10:20:59.704Z,1932.00
2018-03-30T10:21:59.702Z,1868.00
2018-03-30T10:22:59.698Z,1884.00
2018-03-30T10:24:20.704Z,1888.00
2018-03-30T10:24:59.691Z,1940.00
2018-03-30T10:25:59.696Z,1900.00
2018-03-30T10:26:59.701Z,1932.00
2018-03-30T10:27:59.683Z,1928.00
2018-03-30T10:28:59.681Z,1932.00
2018-03-30T10:30:20.709Z,1916.00
2018-03-30T10:30:59.682Z,1972.00
2018-03-30T10:31:59.675Z,1980.00
2018-03-30T10:32:59.671Z,2080.00
2018-03-30T10:33:59.681Z,2016.00
2018-03-30T10:34:59.669Z,2040.00
2018-03-30T10:36:20.670Z,2188.00
2018-03-30T10:36:59.660Z,2204.00
2018-03-30T10:37:59.658Z,2080.00
2018-03-30T10:38:59.654Z,2208.00
2018-03-30T10:39:59.653Z,2188.00
2018-03-30T10:40:59.651Z,2044.00
2018-03-30T10:42:20.658Z,1976.00
2018-03-30T10:42:59.654Z,2088.00
2018-03-30T10:43:59.648Z,2160.00
2018-03-30T10:44:59.640Z,2244.00
2018-03-30T10:45:59.639Z,2360.00
2018-03-30T10:46:59.649Z,2404.00
2018-03-30T10:48:20.694Z,2300.00
2018-03-30T10:48:59.643Z,2296.00
2018-03-30T10:49:59.628Z,2252.00
2018-03-30T10:50:59.628Z,2276.00
2018-03-30T10:51:59.626Z,2456.00
2018-03-30T10:52:59.624Z,2796.00
2018-03-30T10:54:20.626Z,2836.00
2018-03-30T10:54:59.617Z,2628.00
2018-03-30T10:55:59.615Z,2824.00
2018-03-30T10:56:59.612Z,2864.00
2018-03-30T10:57:59.619Z,2932.00
2018-03-30T10:58:59.615Z,2848.00
2018-03-30T11:00:20.630Z,2908.00
2018-03-30T11:00:59.604Z,3024.00
2018-03-30T11:01:59.602Z,2744.00
2018-03-30T11:02:59.634Z,2680.00
2018-03-30T11:03:59.602Z,2704.00
2018-03-30T11:04:59.595Z,2676.00
2018-03-30T11:06:20.625Z,2616.00
2018-03-30T11:06:59.597Z,2476.00
2018-03-30T11:07:59.597Z,2600.00
2018-03-30T11:08:59.597Z,2552.00
2018-03-30T11:09:59.595Z,2968.00
2018-03-30T11:10:59.588Z,2840.00
2018-03-30T11:12:20.597Z,2684.00
2018-03-30T11:12:59.583Z,3184.00
2018-03-30T11:13:59.586Z,3240.00
2018-03-30T11:14:59.588Z,3176.00
2018-03-30T11:15:59.585Z,3032.00
2018-03-30T11:16:59.584Z,3520.00
2018-03-30T11:18:20.699Z,3368.00
2018-03-30T11:18:59.575Z,3280.00
2018-03-30T11:19:59.576Z,3336.00
2018-03-30T11:20:59.575Z,3240.00
2018-03-30T11:21:59.582Z,3104.00
2018-03-30T11:22:59.573Z,3212.00
2018-03-30T11:24:20.589Z,3332.00
2018-03-30T11:24:59.570Z,3188.00
2018-03-30T11:25:59.571Z,3292.00
2018-03-30T11:26:59.571Z,3688.00
2018-03-30T11:27:59.586Z,3468.00
2018-03-30T11:28:59.568Z,3488.00
2018-03-30T11:30:20.588Z,2912.00
2018-03-30T11:30:59.563Z,2456.00
2018-03-30T11:31:59.564Z,2452.00
2018-03-30T11:32:59.604Z,3452.00
2018-03-30T11:33:59.576Z,3968.00
2018-03-30T11:34:59.578Z,4088.00
2018-03-30T11:36:20.573Z,3504.00
2018-03-30T11:36:59.564Z,3332.00
2018-03-30T11:37:59.566Z,3312.00
2018-03-30T11:38:59.562Z,3444.00
2018-03-30T11:39:59.559Z,3244.00
2018-03-30T11:40:59.561Z,3200.00
2018-03-30T11:42:20.593Z,3400.00
2018-03-30T11:42:59.562Z,3416.00
2018-03-30T11:43:59.563Z,3180.00
2018-03-30T11:44:59.565Z,3408.00
2018-03-30T11:45:59.557Z,3276.00
2018-03-30T11:46:59.560Z,3232.00
2018-03-30T11:48:20.597Z,3360.00
2018-03-30T11:48:59.583Z,3388.00
2018-03-30T11:49:59.557Z,4116.00
2018-03-30T11:50:59.564Z,3908.00
2018-03-30T11:51:59.561Z,3632.00
2018-03-30T11:52:59.561Z,3520.00
2018-03-30T11:54:20.577Z,3636.00
2018-03-30T11:54:59.555Z,4124.00
2018-03-30T11:55:59.613Z,3620.00
2018-03-30T11:56:59.558Z,3556.00
2018-03-30T11:57:59.560Z,3216.00
2018-03-30T11:58:59.560Z,3016.00
2018-03-30T12:00:20.564Z,2868.00
2018-03-30T12:00:59.585Z,2744.00
2018-03-30T12:01:59.564Z,2696.00
2018-03-30T12:02:59.570Z,2944.00
2018-03-30T12:03:59.559Z,3428.00
2018-03-30T12:04:59.563Z,4016.00
2018-03-30T12:06:20.571Z,4048.00
2018-03-30T12:06:59.561Z,3716.00
2018-03-30T12:07:59.634Z,3636.00
2018-03-30T12:08:59.561Z,3496.00
2018-03-30T12:09:59.562Z,3588.00
2018-03-30T12:10:59.576Z,3696.00
2018-03-30T12:12:20.571Z,3308.00
2018-03-30T12:12:59.574Z,2856.00
2018-03-30T12:13:59.571Z,2908.00
2018-03-30T12:14:59.575Z,3652.00
2018-03-30T12:15:59.573Z,3528.00
2018-03-30T12:16:59.567Z,3692.00
2018-03-30T12:18:20.592Z,3588.00
2018-03-30T12:18:59.566Z,2884.00
2018-03-30T12:19:59.564Z,3460.00
2018-03-30T12:20:59.572Z,3920.00
2018-03-30T12:21:59.572Z,3324.00
2018-03-30T12:22:59.566Z,3096.00
2018-03-30T12:24:20.576Z,3224.00
2018-03-30T12:24:59.568Z,2984.00
2018-03-30T12:25:59.576Z,2908.00
2018-03-30T12:26:59.572Z,3476.00
2018-03-30T12:27:59.584Z,3492.00
2018-03-30T12:28:59.577Z,3144.00
2018-03-30T12:30:20.580Z,3132.00
2018-03-30T12:30:59.568Z,2840.00
2018-03-30T12:31:59.566Z,2836.00
2018-03-30T12:32:59.568Z,3012.00
2018-03-30T12:33:59.571Z,2924.00